World Discoverer — C6TA8 — position and weather

sailwx.info

Track history (hours):
 
Tides and Currents Weather Stations Pressure Air Temp Water Temp Dewpoint Dewpoint Depression Visibility Wind Speed Wind Dir Waves Ship Positions

World Discoverer

Last reported at 2018-Jun-09 18:55 UTC. Time now 2018-Jun-19 10:50 UTC.
Position N 58°14' W 136°18'.
Warning: this ship's position is 9 days out of date.

Length 108 m; beam 15.6 m; draft 4.4 m.

Type: Passenger vessel. MMSI: 311562000.

Date/timePositionNaut miles runAvg speedWind from/ knotsBaromVisibWave heightAir tempDewpointWater temp
2018-Jun-09 18:55N 58°14' W 136°18'4 8.6
2018-Jun-09 18:30N 58°14' W 136°11'610.0
2018-Jun-09 17:53N 58°15' W 135°60'410.3
2018-Jun-09 17:30N 58°17' W 135°53'3 7.1
2018-Jun-09 17:00N 58°18' W 135°46'2 3.0
2018-Jun-09 16:30N 58°18' W 135°49'2 3.3
2018-Jun-09 16:00N 58°17' W 135°46'4 8.4
2018-Jun-09 15:29N 58°15' W 135°39'  
2018-Jun-05 09:39N 54°45' W 131°10'5 6.4
2018-Jun-05 08:50N 54°42' W 131°17'21 2.1
2018-Jun-04 23:00N 55°00' W 131°36'31 4.7 160 / 141012.5 5.4 12.0 11.0
2018-Jun-04 16:19N 54°31' W 131°17'412.4
2018-Jun-04 16:00N 54°28' W 131°12'612.4
2018-Jun-04 15:30N 54°23' W 131°05'612.6
2018-Jun-04 15:00N 54°20' W 130°56'713.9
2018-Jun-04 14:30N 54°16' W 130°46'510.4
2018-Jun-04 14:00N 54°13' W 130°39'511.0
2018-Jun-04 13:30N 54°10' W 130°31'5 9.0
2018-Jun-04 13:00N 54°07' W 130°25'510.3
2018-Jun-04 12:30N 54°04' W 130°17'611.9
2018-Jun-04 12:00N 53°59' W 130°13'612.0
2018-Jun-04 11:30N 53°54' W 130°07'612.5
2018-Jun-04 11:00N 53°50' W 129°60'612.1
2018-Jun-04 10:30N 53°45' W 129°53'8911.7
2018-Jun-04 02:51N 52°32' W 128°28'513.5
2018-Jun-04 02:31N 52°27' W 128°28'713.4
2018-Jun-04 02:00N 52°21' W 128°32'612.2
2018-Jun-04 01:30N 52°16' W 128°26'713.5
2018-Jun-04 01:00N 52°14' W 128°15'612.3
2018-Jun-04 00:29N 52°11' W 128°06'3 6.9
2018-Jun-04 00:00N 52°08' W 128°08'611.0
2018-Jun-03 23:30N 52°05' W 128°01'511.1
2018-Jun-03 23:00N 52°00' W 127°56'714.1
2018-Jun-03 22:30N 51°53' W 127°56'713.9
2018-Jun-03 22:00N 51°46' W 127°57'714.4
2018-Jun-03 21:31N 51°39' W 127°55'814.5
2018-Jun-03 20:58N 51°31' W 127°51'714.2
2018-Jun-03 20:30N 51°25' W 127°52'714.1
2018-Jun-03 19:59N 51°18' W 127°53'714.0
2018-Jun-03 19:30N 51°11' W 127°52'713.7
2018-Jun-03 19:00N 51°05' W 127°45'714.7
2018-Jun-03 18:30N 51°01' W 127°36'815.0
2018-Jun-03 18:00N 50°56' W 127°27'713.0
2018-Jun-03 17:30N 50°52' W 127°19'714.8
2018-Jun-03 17:01N 50°48' W 127°09'815.1
2018-Jun-03 16:28N 50°44' W 126°58'714.4
2018-Jun-03 16:00N 50°40' W 126°50'814.5
2018-Jun-03 15:27N 50°34' W 126°41'1012.9
2018-Jun-03 14:41N 50°30' W 126°27'2713.2
2018-Jun-03 12:39N 50°22' W 125°46'313.2
2018-Jun-03 12:26N 50°22' W 125°42'1012.8
2018-Jun-03 11:41N 50°20' W 125°27'211.4
2018-Jun-03 11:30N 50°19' W 125°25'713.6
2018-Jun-03 11:00N 50°12' W 125°22'612.4
2018-Jun-03 10:30N 50°07' W 125°18'612.8
2018-Jun-03 10:00N 50°01' W 125°13'612.4
2018-Jun-03 09:30N 49°56' W 125°07'4 8.5
2018-Jun-03 09:00N 49°54' W 125°02'4 7.1
2018-Jun-03 08:29N 49°52' W 124°57'4 7.3
2018-Jun-03 07:59N 49°49' W 124°53'3 7.0
2018-Jun-03 07:31N 49°47' W 124°49'4 7.1
2018-Jun-03 07:00N 49°44' W 124°45'4 8.0
2018-Jun-03 06:30N 49°42' W 124°41'4 8.7
2018-Jun-03 06:00N 49°38' W 124°36'6 9.8
2018-Jun-03 05:26N 49°34' W 124°31'511.4
2018-Jun-03 04:59N 49°30' W 124°26'713.0
2018-Jun-03 04:28N 49°25' W 124°18'613.1
2018-Jun-03 04:00N 49°24' W 124°09'713.2
2018-Jun-03 03:29N 49°22' W 123°59'713.9
2018-Jun-03 02:57N 49°20' W 123°48'613.9
2018-Jun-03 02:30N 49°18' W 123°39'713.6
2018-Jun-03 02:00N 49°18' W 123°28'713.6
2018-Jun-03 01:30N 49°19' W 123°18'612.7
2018-Jun-03 01:00N 49°19' W 123°09'2 4.2
2018-Jun-03 00:30N 49°17' W 123°07'0 0.0
2018-Jun-02 23:58N 49°17' W 123°07'0 0.0
2018-Jun-02 23:31N 49°17' W 123°07'0 0.0
2018-Jun-02 23:01N 49°17' W 123°07'0 0.0
2018-Jun-02 22:28N 49°17' W 123°07'0 0.0
2018-Jun-02 21:58N 49°17' W 123°07'0 0.0
2018-Jun-02 21:28N 49°17' W 123°07'0 0.0
2018-Jun-02 20:58N 49°17' W 123°07'0 0.0
2018-Jun-02 20:28N 49°17' W 123°07'0 0.0
2018-Jun-02 19:55N 49°17' W 123°07'0 0.0
2018-Jun-02 19:28N 49°17' W 123°07'0 0.0
2018-Jun-02 18:58N 49°17' W 123°07'0 0.0
2018-Jun-02 18:28N 49°17' W 123°07'0 0.0
2018-Jun-02 17:58N 49°17' W 123°07'0 0.0
2018-Jun-02 17:31N 49°17' W 123°07'0 0.0
2018-Jun-02 16:58N 49°17' W 123°07'0 0.0
2018-Jun-02 16:31N 49°17' W 123°07'0 0.0
2018-Jun-02 15:58N 49°17' W 123°07'0 0.0
2018-Jun-02 15:31N 49°17' W 123°07'0 0.0
2018-Jun-02 15:01N 49°17' W 123°07'0 0.0
2018-Jun-02 14:28N 49°17' W 123°07'0 0.0
2018-Jun-02 13:58N 49°17' W 123°07'0 0.0
2018-Jun-02 13:31N 49°17' W 123°07'0 0.0
2018-Jun-02 13:01N 49°17' W 123°07'0 0.0
2018-Jun-02 12:31N 49°17' W 123°07'1 1.2
2018-Jun-02 12:00N 49°18' W 123°06'4 7.4
2018-Jun-02 11:30N 49°19' W 123°12'5 9.6
2018-Jun-02 10:59N 49°18' W 123°19'510.4
2018-Jun-02 10:29N 49°18' W 123°27'510.9
2018-Jun-02 10:00N 49°19' W 123°35'510.0
2018-Jun-02 09:29N 49°19' W 123°43'2 4.4
2018-Jun-02 09:00N 49°18' W 123°46'4 7.9
2018-Jun-02 08:31N 49°16' W 123°41'4 7.8
2018-Jun-02 08:00N 49°13' W 123°36'4 7.2
2018-Jun-02 07:28N 49°11' W 123°32'4 7.3
2018-Jun-02 06:59N 49°08' W 123°28'4 8.8
2018-Jun-02 06:31N 49°05' W 123°24'5 9.4
2018-Jun-02 06:00N 49°02' W 123°18'4 7.4
2018-Jun-02 05:29N 48°59' W 123°14'4 7.5
2018-Jun-02 05:01N 48°57' W 123°10'4 7.2
2018-Jun-02 04:24N 48°54' W 123°05'512.0
2018-Jun-02 04:00N 48°50' W 123°01'611.9
2018-Jun-02 03:30N 48°45' W 123°05'713.7
2018-Jun-02 03:00N 48°43' W 123°15'10 0.9
2018-Jun-01 16:30N 48°50' W 123°27'0 0.1
2018-Jun-01 14:27N 48°50' W 123°27'0 0.3
2018-Jun-01 14:00N 48°50' W 123°27'1 0.9
2018-Jun-01 13:27N 48°50' W 123°27'4 9.6
2018-Jun-01 13:00N 48°48' W 123°21'611.2
2018-Jun-01 12:30N 48°44' W 123°16'510.4
2018-Jun-01 12:00N 48°44' W 123°08'5 9.9
2018-Jun-01 11:30N 48°47' W 123°01'5 9.7
2018-Jun-01 11:00N 48°52' W 123°04'510.9
2018-Jun-01 10:30N 48°55' W 123°11'5 9.7
2018-Jun-01 09:57N 48°58' W 123°17'4 9.8
2018-Jun-01 09:30N 49°01' W 123°22'5 9.5
2018-Jun-01 08:58N 49°06' W 123°25'510.4
2018-Jun-01 08:30N 49°10' W 123°30'610.2
2018-Jun-01 07:58N 49°13' W 123°37'3210.5
2018-Jun-01 04:55N 49°25' W 124°22'510.3
2018-Jun-01 04:28N 49°28' W 124°28'5 9.7
2018-Jun-01 03:58N 49°32' W 124°32'510.0
2018-Jun-01 03:30N 49°36' W 124°37'5 9.9
2018-Jun-01 03:00N 49°39' W 124°42'5 9.7
2018-Jun-01 02:30N 49°43' W 124°47'5 9.6
2018-Jun-01 02:00N 49°47' W 124°52'5 9.4
2018-Jun-01 01:31N 49°50' W 124°56'5 9.3
2018-Jun-01 01:00N 49°54' W 125°01'5 9.4
2018-Jun-01 00:30N 49°58' W 125°04'5 9.5
2018-Jun-01 00:00N 50°02' W 125°07'5 9.6
2018-May-31 23:30N 50°07' W 125°10'1 2.1
2018-May-31 22:56N 50°07' W 125°12'0 0.1
2018-May-31 22:29N 50°07' W 125°12'0 0.1
2018-May-31 21:59N 50°07' W 125°12'0 0.0
2018-May-31 21:29N 50°07' W 125°12'0 0.0
2018-May-31 20:59N 50°07' W 125°12'0 0.0
2018-May-31 20:29N 50°07' W 125°12'0 0.0
2018-May-31 19:59N 50°07' W 125°12'0 0.0
2018-May-31 19:29N 50°07' W 125°12'0 0.0
2018-May-31 18:59N 50°07' W 125°12'0 0.0
2018-May-31 18:29N 50°07' W 125°12'0 0.0
2018-May-31 17:59N 50°07' W 125°12'0 0.0
2018-May-31 17:29N 50°07' W 125°12'0 0.1
2018-May-31 16:59N 50°07' W 125°12'0 0.1
2018-May-31 16:29N 50°06' W 125°12'0 0.0
2018-May-31 15:59N 50°06' W 125°12'0 0.1
2018-May-31 15:30N 50°07' W 125°12'3 5.9
2018-May-31 15:01N 50°05' W 125°08'510.1
2018-May-31 14:30N 50°00' W 125°06'510.6
2018-May-31 14:00N 49°55' W 125°03'510.2
2018-May-31 13:30N 49°51' W 124°58'611.4
2018-May-31 13:00N 49°47' W 124°52'611.7
2018-May-31 12:30N 49°43' W 124°46'611.2
2018-May-31 12:00N 49°38' W 124°40'510.5
2018-May-31 11:30N 49°34' W 124°35'610.7
2018-May-31 10:58N 49°30' W 124°29'510.5
2018-May-31 10:28N 49°26' W 124°24'510.3
2018-May-31 10:00N 49°25' W 124°17'610.9
2018-May-31 09:30N 49°23' W 124°09'510.3
2018-May-31 09:00N 49°21' W 124°01'1610.7
2018-May-31 07:31N 49°14' W 123°40'110.7
2018-May-31 07:28N 49°13' W 123°39'611.2
2018-May-31 06:54N 49°10' W 123°31'410.9
2018-May-31 06:30N 49°07' W 123°26'611.5
2018-May-31 06:00N 49°03' W 123°20'611.2
2018-May-31 05:31N 48°59' W 123°13'611.0
2018-May-31 05:00N 48°56' W 123°07'611.7
2018-May-31 04:31N 48°51' W 123°02'5 9.8
2018-May-31 03:59N 48°46' W 123°02'611.9
2018-May-31 03:31N 48°43' W 123°10'510.3
2018-May-31 03:01N 48°39' W 123°14'714.0
2018-May-31 02:31N 48°32' W 123°12'713.7
2018-May-31 02:00N 48°25' W 123°10'713.9
2018-May-31 01:30N 48°22' W 123°19'  
Track history (hours):
 
Tides and Currents Weather Stations Pressure Air Temp Water Temp Dewpoint Dewpoint Depression Visibility Wind Speed Wind Dir Waves Ship Positions

World Discoverer

Last reported at 2018-Jun-09 18:55 UTC. Time now 2018-Jun-19 10:50 UTC.
Position N 58°14' W 136°18'.
Warning: this ship's position is 9 days out of date.

Length 108 m; beam 15.6 m; draft 4.4 m.

Type: Passenger vessel. MMSI: 311562000.

Date/timePositionNaut miles runAvg speedWind from/ knotsBaromVisibWave heightAir tempDewpointWater temp
2018-Jun-09 18:55N 58°14' W 136°18'4 8.6
2018-Jun-09 18:30N 58°14' W 136°11'610.0
2018-Jun-09 17:53N 58°15' W 135°60'410.3
2018-Jun-09 17:30N 58°17' W 135°53'3 7.1
2018-Jun-09 17:00N 58°18' W 135°46'2 3.0
2018-Jun-09 16:30N 58°18' W 135°49'2 3.3
2018-Jun-09 16:00N 58°17' W 135°46'4 8.4
2018-Jun-09 15:29N 58°15' W 135°39'  
2018-Jun-05 09:39N 54°45' W 131°10'5 6.4
2018-Jun-05 08:50N 54°42' W 131°17'21 2.1
2018-Jun-04 23:00N 55°00' W 131°36'31 4.7 160 / 141012.5 5.4 12.0 11.0
2018-Jun-04 16:19N 54°31' W 131°17'412.4
2018-Jun-04 16:00N 54°28' W 131°12'612.4
2018-Jun-04 15:30N 54°23' W 131°05'612.6
2018-Jun-04 15:00N 54°20' W 130°56'713.9
2018-Jun-04 14:30N 54°16' W 130°46'510.4
2018-Jun-04 14:00N 54°13' W 130°39'511.0
2018-Jun-04 13:30N 54°10' W 130°31'5 9.0
2018-Jun-04 13:00N 54°07' W 130°25'510.3
2018-Jun-04 12:30N 54°04' W 130°17'611.9
2018-Jun-04 12:00N 53°59' W 130°13'612.0
2018-Jun-04 11:30N 53°54' W 130°07'612.5
2018-Jun-04 11:00N 53°50' W 129°60'612.1
2018-Jun-04 10:30N 53°45' W 129°53'8911.7
2018-Jun-04 02:51N 52°32' W 128°28'513.5
2018-Jun-04 02:31N 52°27' W 128°28'713.4
2018-Jun-04 02:00N 52°21' W 128°32'612.2
2018-Jun-04 01:30N 52°16' W 128°26'713.5
2018-Jun-04 01:00N 52°14' W 128°15'612.3
2018-Jun-04 00:29N 52°11' W 128°06'3 6.9
2018-Jun-04 00:00N 52°08' W 128°08'611.0
2018-Jun-03 23:30N 52°05' W 128°01'511.1
2018-Jun-03 23:00N 52°00' W 127°56'714.1
2018-Jun-03 22:30N 51°53' W 127°56'713.9
2018-Jun-03 22:00N 51°46' W 127°57'714.4
2018-Jun-03 21:31N 51°39' W 127°55'814.5
2018-Jun-03 20:58N 51°31' W 127°51'714.2
2018-Jun-03 20:30N 51°25' W 127°52'714.1
2018-Jun-03 19:59N 51°18' W 127°53'714.0
2018-Jun-03 19:30N 51°11' W 127°52'713.7
2018-Jun-03 19:00N 51°05' W 127°45'714.7
2018-Jun-03 18:30N 51°01' W 127°36'815.0
2018-Jun-03 18:00N 50°56' W 127°27'713.0
2018-Jun-03 17:30N 50°52' W 127°19'714.8
2018-Jun-03 17:01N 50°48' W 127°09'815.1
2018-Jun-03 16:28N 50°44' W 126°58'714.4
2018-Jun-03 16:00N 50°40' W 126°50'814.5
2018-Jun-03 15:27N 50°34' W 126°41'1012.9
2018-Jun-03 14:41N 50°30' W 126°27'2713.2
2018-Jun-03 12:39N 50°22' W 125°46'313.2
2018-Jun-03 12:26N 50°22' W 125°42'1012.8
2018-Jun-03 11:41N 50°20' W 125°27'211.4
2018-Jun-03 11:30N 50°19' W 125°25'713.6
2018-Jun-03 11:00N 50°12' W 125°22'612.4
2018-Jun-03 10:30N 50°07' W 125°18'612.8
2018-Jun-03 10:00N 50°01' W 125°13'612.4
2018-Jun-03 09:30N 49°56' W 125°07'4 8.5
2018-Jun-03 09:00N 49°54' W 125°02'4 7.1
2018-Jun-03 08:29N 49°52' W 124°57'4 7.3
2018-Jun-03 07:59N 49°49' W 124°53'3 7.0
2018-Jun-03 07:31N 49°47' W 124°49'4 7.1
2018-Jun-03 07:00N 49°44' W 124°45'4 8.0
2018-Jun-03 06:30N 49°42' W 124°41'4 8.7
2018-Jun-03 06:00N 49°38' W 124°36'6 9.8
2018-Jun-03 05:26N 49°34' W 124°31'511.4
2018-Jun-03 04:59N 49°30' W 124°26'713.0
2018-Jun-03 04:28N 49°25' W 124°18'613.1
2018-Jun-03 04:00N 49°24' W 124°09'713.2
2018-Jun-03 03:29N 49°22' W 123°59'713.9
2018-Jun-03 02:57N 49°20' W 123°48'613.9
2018-Jun-03 02:30N 49°18' W 123°39'713.6
2018-Jun-03 02:00N 49°18' W 123°28'713.6
2018-Jun-03 01:30N 49°19' W 123°18'612.7
2018-Jun-03 01:00N 49°19' W 123°09'2 4.2
2018-Jun-03 00:30N 49°17' W 123°07'0 0.0
2018-Jun-02 23:58N 49°17' W 123°07'0 0.0
2018-Jun-02 23:31N 49°17' W 123°07'0 0.0
2018-Jun-02 23:01N 49°17' W 123°07'0 0.0
2018-Jun-02 22:28N 49°17' W 123°07'0 0.0
2018-Jun-02 21:58N 49°17' W 123°07'0 0.0
2018-Jun-02 21:28N 49°17' W 123°07'0 0.0
2018-Jun-02 20:58N 49°17' W 123°07'0 0.0
2018-Jun-02 20:28N 49°17' W 123°07'0 0.0
2018-Jun-02 19:55N 49°17' W 123°07'0 0.0
2018-Jun-02 19:28N 49°17' W 123°07'0 0.0
2018-Jun-02 18:58N 49°17' W 123°07'0 0.0
2018-Jun-02 18:28N 49°17' W 123°07'0 0.0
2018-Jun-02 17:58N 49°17' W 123°07'0 0.0
2018-Jun-02 17:31N 49°17' W 123°07'0 0.0
2018-Jun-02 16:58N 49°17' W 123°07'0 0.0
2018-Jun-02 16:31N 49°17' W 123°07'0 0.0
2018-Jun-02 15:58N 49°17' W 123°07'0 0.0
2018-Jun-02 15:31N 49°17' W 123°07'0 0.0
2018-Jun-02 15:01N 49°17' W 123°07'0 0.0
2018-Jun-02 14:28N 49°17' W 123°07'0 0.0
2018-Jun-02 13:58N 49°17' W 123°07'0 0.0
2018-Jun-02 13:31N 49°17' W 123°07'0 0.0
2018-Jun-02 13:01N 49°17' W 123°07'0 0.0
2018-Jun-02 12:31N 49°17' W 123°07'1 1.2
2018-Jun-02 12:00N 49°18' W 123°06'4 7.4
2018-Jun-02 11:30N 49°19' W 123°12'5 9.6
2018-Jun-02 10:59N 49°18' W 123°19'510.4
2018-Jun-02 10:29N 49°18' W 123°27'510.9
2018-Jun-02 10:00N 49°19' W 123°35'510.0
2018-Jun-02 09:29N 49°19' W 123°43'2 4.4
2018-Jun-02 09:00N 49°18' W 123°46'4 7.9
2018-Jun-02 08:31N 49°16' W 123°41'4 7.8
2018-Jun-02 08:00N 49°13' W 123°36'4 7.2
2018-Jun-02 07:28N 49°11' W 123°32'4 7.3
2018-Jun-02 06:59N 49°08' W 123°28'4 8.8
2018-Jun-02 06:31N 49°05' W 123°24'5 9.4
2018-Jun-02 06:00N 49°02' W 123°18'4 7.4
2018-Jun-02 05:29N 48°59' W 123°14'4 7.5
2018-Jun-02 05:01N 48°57' W 123°10'4 7.2
2018-Jun-02 04:24N 48°54' W 123°05'512.0
2018-Jun-02 04:00N 48°50' W 123°01'611.9
2018-Jun-02 03:30N 48°45' W 123°05'713.7
2018-Jun-02 03:00N 48°43' W 123°15'10 0.9
2018-Jun-01 16:30N 48°50' W 123°27'0 0.1
2018-Jun-01 14:27N 48°50' W 123°27'0 0.3
2018-Jun-01 14:00N 48°50' W 123°27'1 0.9
2018-Jun-01 13:27N 48°50' W 123°27'4 9.6
2018-Jun-01 13:00N 48°48' W 123°21'611.2
2018-Jun-01 12:30N 48°44' W 123°16'510.4
2018-Jun-01 12:00N 48°44' W 123°08'5 9.9
2018-Jun-01 11:30N 48°47' W 123°01'5 9.7
2018-Jun-01 11:00N 48°52' W 123°04'510.9
2018-Jun-01 10:30N 48°55' W 123°11'5 9.7
2018-Jun-01 09:57N 48°58' W 123°17'4 9.8
2018-Jun-01 09:30N 49°01' W 123°22'5 9.5
2018-Jun-01 08:58N 49°06' W 123°25'510.4
2018-Jun-01 08:30N 49°10' W 123°30'610.2
2018-Jun-01 07:58N 49°13' W 123°37'3210.5
2018-Jun-01 04:55N 49°25' W 124°22'510.3
2018-Jun-01 04:28N 49°28' W 124°28'5 9.7
2018-Jun-01 03:58N 49°32' W 124°32'510.0
2018-Jun-01 03:30N 49°36' W 124°37'5 9.9
2018-Jun-01 03:00N 49°39' W 124°42'5 9.7
2018-Jun-01 02:30N 49°43' W 124°47'5 9.6
2018-Jun-01 02:00N 49°47' W 124°52'5 9.4
2018-Jun-01 01:31N 49°50' W 124°56'5 9.3
2018-Jun-01 01:00N 49°54' W 125°01'5 9.4
2018-Jun-01 00:30N 49°58' W 125°04'5 9.5
2018-Jun-01 00:00N 50°02' W 125°07'5 9.6
2018-May-31 23:30N 50°07' W 125°10'1 2.1
2018-May-31 22:56N 50°07' W 125°12'0 0.1
2018-May-31 22:29N 50°07' W 125°12'0 0.1
2018-May-31 21:59N 50°07' W 125°12'0 0.0
2018-May-31 21:29N 50°07' W 125°12'0 0.0
2018-May-31 20:59N 50°07' W 125°12'0 0.0
2018-May-31 20:29N 50°07' W 125°12'0 0.0
2018-May-31 19:59N 50°07' W 125°12'0 0.0
2018-May-31 19:29N 50°07' W 125°12'0 0.0
2018-May-31 18:59N 50°07' W 125°12'0 0.0
2018-May-31 18:29N 50°07' W 125°12'0 0.0
2018-May-31 17:59N 50°07' W 125°12'0 0.0
2018-May-31 17:29N 50°07' W 125°12'0 0.1
2018-May-31 16:59N 50°07' W 125°12'0 0.1
2018-May-31 16:29N 50°06' W 125°12'0 0.0
2018-May-31 15:59N 50°06' W 125°12'0 0.1
2018-May-31 15:30N 50°07' W 125°12'3 5.9
2018-May-31 15:01N 50°05' W 125°08'510.1
2018-May-31 14:30N 50°00' W 125°06'510.6
2018-May-31 14:00N 49°55' W 125°03'510.2
2018-May-31 13:30N 49°51' W 124°58'611.4
2018-May-31 13:00N 49°47' W 124°52'611.7
2018-May-31 12:30N 49°43' W 124°46'611.2
2018-May-31 12:00N 49°38' W 124°40'510.5
2018-May-31 11:30N 49°34' W 124°35'610.7
2018-May-31 10:58N 49°30' W 124°29'510.5
2018-May-31 10:28N 49°26' W 124°24'510.3
2018-May-31 10:00N 49°25' W 124°17'610.9
2018-May-31 09:30N 49°23' W 124°09'510.3
2018-May-31 09:00N 49°21' W 124°01'1610.7
2018-May-31 07:31N 49°14' W 123°40'110.7
2018-May-31 07:28N 49°13' W 123°39'611.2
2018-May-31 06:54N 49°10' W 123°31'410.9
2018-May-31 06:30N 49°07' W 123°26'611.5
2018-May-31 06:00N 49°03' W 123°20'611.2
2018-May-31 05:31N 48°59' W 123°13'611.0
2018-May-31 05:00N 48°56' W 123°07'611.7
2018-May-31 04:31N 48°51' W 123°02'5 9.8
2018-May-31 03:59N 48°46' W 123°02'611.9
2018-May-31 03:31N 48°43' W 123°10'510.3
2018-May-31 03:01N 48°39' W 123°14'714.0
2018-May-31 02:31N 48°32' W 123°12'713.7
2018-May-31 02:00N 48°25' W 123°10'713.9
2018-May-31 01:30N 48°22' W 123°19'  

Dump ship's entire track history